Accueil
METAR-TAF:

METAR-TAF

Aéroports :

Aéroport d'Aurigny

Aurigny,

latitude: 49-43N, longitude: 002-12W, altitude: 71 m

Observation

Le bulletin a été fait il y a 44 minutes, à 16:50 UTC
Vent 18 kt de ouest
Température 9°C
Humidité 93%
Pression 1032 hPa
Visibilité 10 km ou plus
Quelques nuages à une hauteur de 1300 ft
Nuages épars à une hauteur de 2200 ft

METAR: EGJA 021650Z 27018KT 9999 FEW013 SCT022 09/08 Q1032

Heure: 17:34 (17:34 UTC)

Prévision

Le bulletin a été fait il y a 3 heures et 37 minutes, à 13:57 UTC
Prévision valable du 02 à 15 UTC au 03 à 00 UTC
Vent 14 kt de ouest
Visibilité 10 km ou plus
Quelques nuages à une hauteur de 1800 ft
Nuages fragmentés à une hauteur de 3000 ft

TAF: EGJA 021357Z 0215/0300 26014KT 9999 FEW018 BKN030

Observations et prévisions météorologiques de plus de 4000 aéroports (messages METAR et TAF).

Les stations disponibles sont représentées par des disques jaunes et rouges sur la carte.

Passer la souris dessus pour voir le nom de la station.

Cliquer dessus pour voir les observations et prévisions météorologiques.

Pour changer de carte: cliquez sur les boutons verts avec une croix noire pour zoomer, sur le bouton vert avec un tiret pour effectuer un zoom arrière, ou sur les flèches vertes pour les cartes adjacentes.


METAR-TAF: